メインページ
METAR-TAF:

METAR-TAF

空港 :

ディオリ・アマニ国際空港

ニアメ, ニジェール

緯度: 13-29N, 経度: 002-10E, 海抜: 223m

現時点の気象観測

当レポートは1時間18分前の09:00(UTC)に作成
南/南西の風 11kt、から西/南西の間で変化する
気温 31°C
湿度 49%
気圧 1014 hPa
視程10km以上
1,500メートル以下は雲なし、積乱雲なし

METAR: DRRN 210900Z 21011KT 170V240 CAVOK 31/19 Q1014 NOSIG

時間: 11:18 (10:18 UTC)

予報

当レポートは5時間18分前の05:00(UTC)に作成
予報は21日の 06時(UTC)から 22日の 12時(UTC)まで有効
南西の風 10kt
視程: 8000m
確率 30% :
21日の 15時(UTC)から 21日の 20時(UTC)まで一時的に
高度4000ftの雲はほとんどない, 積乱雲.
激しい雷雨
確率 30% :
21日の 20時(UTC)から 22日の 02時(UTC)まで一時的に
の風 25kt、最大35ktの突風を伴う
視程: 0300m
高度2000ftの千切れ雲あり
高度3000ftの雲は散在している, 積乱雲.
スコール, 風塵, 激しい雷雨, 雨

TAF: DRRN 210500Z 2106/2212 22010KT 8000 NSC PROB30 TEMPO 2115/2120 TS FEW040CB PROB30 TEMPO 2120/2202 10025G35KT 0300 SQ BLDU TSRA BKN020 SCT030CB

4,000以上の空港の気象観測と天気予報(METAR報とTAF報)

利用可能な観測所は地図上に黄色い丸と赤い丸で示す。

丸の上にカーソルを重ねると観測所名を参照できる。

次にクリックすると気象観測と天気予報を参照できる。

マップの切り替え:黒色「×」印の緑ボタンをクリックして拡大、「-」印の緑ボタンをクリックして縮小、緑色の三角印をクリックして隣りの地図に切り替え


METAR-TAF: